sensor_id;sensor_type;location;lat;lon;timestamp;P1;durP1;ratioP1;P2;durP2;ratioP2
15106;SDS011;7654;45.308;-75.096;2022-08-19T00:02:20;0.20;;;0.20;;
15106;SDS011;7654;45.308;-75.096;2022-08-19T00:04:51;0.20;;;0.20;;
15106;SDS011;7654;45.308;-75.096;2022-08-19T00:07:23;0.20;;;0.20;;
15106;SDS011;7654;45.308;-75.096;2022-08-19T00:09:54;0.20;;;0.20;;
15106;SDS011;7654;45.308;-75.096;2022-08-19T00:12:25;0.20;;;0.20;;
15106;SDS011;7654;45.308;-75.096;2022-08-19T00:14:55;0.20;;;0.20;;
15106;SDS011;7654;45.308;-75.096;2022-08-19T00:17:26;0.20;;;0.20;;
15106;SDS011;7654;45.308;-75.096;2022-08-19T00:19:56;0.20;;;0.20;;
15106;SDS011;7654;45.308;-75.096;2022-08-19T00:22:29;0.20;;;0.20;;
15106;SDS011;7654;45.308;-75.096;2022-08-19T00:25:00;0.20;;;0.20;;
15106;SDS011;7654;45.308;-75.096;2022-08-19T00:27:31;0.20;;;0.20;;
15106;SDS011;7654;45.308;-75.096;2022-08-19T00:30:04;0.20;;;0.20;;
15106;SDS011;7654;45.308;-75.096;2022-08-19T00:32:37;0.20;;;0.20;;
15106;SDS011;7654;45.308;-75.096;2022-08-19T00:35:08;0.20;;;0.20;;
15106;SDS011;7654;45.308;-75.096;2022-08-19T00:37:40;0.20;;;0.20;;
15106;SDS011;7654;45.308;-75.096;2022-08-19T00:40:12;0.20;;;0.20;;
15106;SDS011;7654;45.308;-75.096;2022-08-19T00:42:42;0.20;;;0.20;;
15106;SDS011;7654;45.308;-75.096;2022-08-19T00:45:14;0.20;;;0.20;;
15106;SDS011;7654;45.308;-75.096;2022-08-19T00:47:46;0.20;;;0.20;;
15106;SDS011;7654;45.308;-75.096;2022-08-19T00:50:17;0.20;;;0.20;;
15106;SDS011;7654;45.308;-75.096;2022-08-19T00:52:52;0.20;;;0.20;;
15106;SDS011;7654;45.308;-75.096;2022-08-19T00:55:24;0.20;;;0.20;;
15106;SDS011;7654;45.308;-75.096;2022-08-19T01:03:03;0.30;;;0.30;;
15106;SDS011;7654;45.308;-75.096;2022-08-19T01:05:36;0.20;;;0.20;;
15106;SDS011;7654;45.308;-75.096;2022-08-19T01:08:10;0.20;;;0.20;;
15106;SDS011;7654;45.308;-75.096;2022-08-19T01:10:42;0.20;;;0.20;;
15106;SDS011;7654;45.308;-75.096;2022-08-19T01:13:15;0.20;;;0.20;;
15106;SDS011;7654;45.308;-75.096;2022-08-19T01:15:50;0.30;;;0.30;;
15106;SDS011;7654;45.308;-75.096;2022-08-19T01:18:24;0.20;;;0.20;;
15106;SDS011;7654;45.308;-75.096;2022-08-19T01:21:00;0.20;;;0.20;;
15106;SDS011;7654;45.308;-75.096;2022-08-19T01:23:37;0.20;;;0.20;;
15106;SDS011;7654;45.308;-75.096;2022-08-19T01:26:17;0.20;;;0.20;;
15106;SDS011;7654;45.308;-75.096;2022-08-19T01:28:53;0.20;;;0.20;;
15106;SDS011;7654;45.308;-75.096;2022-08-19T01:31:27;0.20;;;0.20;;
15106;SDS011;7654;45.308;-75.096;2022-08-19T01:34:00;0.20;;;0.20;;
15106;SDS011;7654;45.308;-75.096;2022-08-19T01:36:32;0.23;;;0.23;;
15106;SDS011;7654;45.308;-75.096;2022-08-19T01:39:07;0.30;;;0.30;;
15106;SDS011;7654;45.308;-75.096;2022-08-19T01:41:40;0.30;;;0.30;;
15106;SDS011;7654;45.308;-75.096;2022-08-19T01:44:11;0.20;;;0.20;;
15106;SDS011;7654;45.308;-75.096;2022-08-19T01:46:45;0.20;;;0.20;;
15106;SDS011;7654;45.308;-75.096;2022-08-19T01:49:18;0.20;;;0.20;;
15106;SDS011;7654;45.308;-75.096;2022-08-19T01:51:50;0.20;;;0.20;;
15106;SDS011;7654;45.308;-75.096;2022-08-19T01:54:22;0.30;;;0.30;;
15106;SDS011;7654;45.308;-75.096;2022-08-19T01:56:55;0.30;;;0.30;;
15106;SDS011;7654;45.308;-75.096;2022-08-19T01:59:29;0.20;;;0.20;;
15106;SDS011;7654;45.308;-75.096;2022-08-19T02:02:00;0.20;;;0.20;;
15106;SDS011;7654;45.308;-75.096;2022-08-19T02:04:34;0.23;;;0.23;;
15106;SDS011;7654;45.308;-75.096;2022-08-19T02:07:06;0.20;;;0.20;;
15106;SDS011;7654;45.308;-75.096;2022-08-19T02:09:38;0.20;;;0.20;;
15106;SDS011;7654;45.308;-75.096;2022-08-19T02:12:09;0.30;;;0.30;;
15106;SDS011;7654;45.308;-75.096;2022-08-19T02:14:39;0.30;;;0.30;;
15106;SDS011;7654;45.308;-75.096;2022-08-19T02:17:14;0.30;;;0.30;;
15106;SDS011;7654;45.308;-75.096;2022-08-19T02:19:45;0.30;;;0.30;;
15106;SDS011;7654;45.308;-75.096;2022-08-19T02:22:16;0.30;;;0.30;;
15106;SDS011;7654;45.308;-75.096;2022-08-19T02:24:48;0.27;;;0.27;;
15106;SDS011;7654;45.308;-75.096;2022-08-19T02:27:18;0.30;;;0.30;;
15106;SDS011;7654;45.308;-75.096;2022-08-19T02:29:50;0.30;;;0.30;;
15106;SDS011;7654;45.308;-75.096;2022-08-19T02:32:20;0.30;;;0.30;;
15106;SDS011;7654;45.308;-75.096;2022-08-19T02:34:51;0.30;;;0.30;;
15106;SDS011;7654;45.308;-75.096;2022-08-19T02:37:21;0.30;;;0.30;;
15106;SDS011;7654;45.308;-75.096;2022-08-19T02:40:10;0.30;;;0.30;;
15106;SDS011;7654;45.308;-75.096;2022-08-19T02:42:40;0.30;;;0.30;;
15106;SDS011;7654;45.308;-75.096;2022-08-19T02:45:11;0.30;;;0.30;;
15106;SDS011;7654;45.308;-75.096;2022-08-19T02:47:41;0.30;;;0.30;;
15106;SDS011;7654;45.308;-75.096;2022-08-19T02:50:12;0.30;;;0.30;;
15106;SDS011;7654;45.308;-75.096;2022-08-19T02:52:42;0.20;;;0.20;;
15106;SDS011;7654;45.308;-75.096;2022-08-19T02:55:14;0.20;;;0.20;;
15106;SDS011;7654;45.308;-75.096;2022-08-19T02:57:44;0.20;;;0.20;;
15106;SDS011;7654;45.308;-75.096;2022-08-19T03:00:15;0.30;;;0.30;;
15106;SDS011;7654;45.308;-75.096;2022-08-19T03:02:45;0.30;;;0.30;;
15106;SDS011;7654;45.308;-75.096;2022-08-19T03:05:16;0.30;;;0.30;;
15106;SDS011;7654;45.308;-75.096;2022-08-19T03:08:06;0.30;;;0.30;;
15106;SDS011;7654;45.308;-75.096;2022-08-19T03:10:41;0.30;;;0.30;;
15106;SDS011;7654;45.308;-75.096;2022-08-19T03:13:13;0.30;;;0.30;;
15106;SDS011;7654;45.308;-75.096;2022-08-19T03:15:45;0.30;;;0.30;;
15106;SDS011;7654;45.308;-75.096;2022-08-19T03:18:16;0.30;;;0.30;;
15106;SDS011;7654;45.308;-75.096;2022-08-19T03:20:49;0.30;;;0.30;;
15106;SDS011;7654;45.308;-75.096;2022-08-19T03:23:22;0.30;;;0.30;;
15106;SDS011;7654;45.308;-75.096;2022-08-19T03:25:54;0.30;;;0.30;;
15106;SDS011;7654;45.308;-75.096;2022-08-19T03:28:42;0.30;;;0.30;;
15106;SDS011;7654;45.308;-75.096;2022-08-19T03:31:24;0.30;;;0.30;;
15106;SDS011;7654;45.308;-75.096;2022-08-19T03:34:17;0.30;;;0.30;;
15106;SDS011;7654;45.308;-75.096;2022-08-19T03:36:48;0.30;;;0.30;;
15106;SDS011;7654;45.308;-75.096;2022-08-19T03:39:18;0.30;;;0.30;;
15106;SDS011;7654;45.308;-75.096;2022-08-19T03:41:51;0.30;;;0.30;;
15106;SDS011;7654;45.308;-75.096;2022-08-19T03:44:44;0.30;;;0.30;;
15106;SDS011;7654;45.308;-75.096;2022-08-19T03:47:14;0.30;;;0.30;;
15106;SDS011;7654;45.308;-75.096;2022-08-19T03:49:44;0.30;;;0.30;;
15106;SDS011;7654;45.308;-75.096;2022-08-19T03:52:15;0.30;;;0.30;;
15106;SDS011;7654;45.308;-75.096;2022-08-19T03:54:45;0.30;;;0.30;;
15106;SDS011;7654;45.308;-75.096;2022-08-19T03:57:16;0.30;;;0.30;;
15106;SDS011;7654;45.308;-75.096;2022-08-19T03:59:50;0.30;;;0.30;;
15106;SDS011;7654;45.308;-75.096;2022-08-19T04:02:29;0.27;;;0.27;;
15106;SDS011;7654;45.308;-75.096;2022-08-19T04:05:00;0.20;;;0.20;;
15106;SDS011;7654;45.308;-75.096;2022-08-19T04:07:30;0.30;;;0.30;;
15106;SDS011;7654;45.308;-75.096;2022-08-19T04:10:00;0.30;;;0.30;;
15106;SDS011;7654;45.308;-75.096;2022-08-19T04:12:32;0.30;;;0.30;;
15106;SDS011;7654;45.308;-75.096;2022-08-19T04:15:03;0.30;;;0.30;;
15106;SDS011;7654;45.308;-75.096;2022-08-19T04:17:33;0.30;;;0.30;;
15106;SDS011;7654;45.308;-75.096;2022-08-19T04:20:04;0.30;;;0.30;;
15106;SDS011;7654;45.308;-75.096;2022-08-19T04:22:35;0.30;;;0.30;;
15106;SDS011;7654;45.308;-75.096;2022-08-19T04:25:05;0.30;;;0.30;;
15106;SDS011;7654;45.308;-75.096;2022-08-19T04:27:37;0.30;;;0.30;;
15106;SDS011;7654;45.308;-75.096;2022-08-19T04:30:14;0.30;;;0.30;;
15106;SDS011;7654;45.308;-75.096;2022-08-19T04:32:45;0.30;;;0.30;;
15106;SDS011;7654;45.308;-75.096;2022-08-19T04:35:15;0.30;;;0.30;;
15106;SDS011;7654;45.308;-75.096;2022-08-19T04:37:50;0.30;;;0.30;;
15106;SDS011;7654;45.308;-75.096;2022-08-19T04:40:20;0.30;;;0.30;;
15106;SDS011;7654;45.308;-75.096;2022-08-19T04:43:09;0.30;;;0.30;;
15106;SDS011;7654;45.308;-75.096;2022-08-19T04:45:42;0.30;;;0.30;;
15106;SDS011;7654;45.308;-75.096;2022-08-19T04:48:14;0.30;;;0.30;;
15106;SDS011;7654;45.308;-75.096;2022-08-19T04:50:52;0.30;;;0.30;;
15106;SDS011;7654;45.308;-75.096;2022-08-19T04:53:25;0.30;;;0.30;;
15106;SDS011;7654;45.308;-75.096;2022-08-19T04:56:04;0.30;;;0.30;;
15106;SDS011;7654;45.308;-75.096;2022-08-19T04:58:39;0.30;;;0.30;;
15106;SDS011;7654;45.308;-75.096;2022-08-19T05:01:11;0.30;;;0.30;;
15106;SDS011;7654;45.308;-75.096;2022-08-19T05:03:42;0.30;;;0.30;;
15106;SDS011;7654;45.308;-75.096;2022-08-19T05:06:13;0.30;;;0.30;;
15106;SDS011;7654;45.308;-75.096;2022-08-19T05:08:45;0.30;;;0.30;;
15106;SDS011;7654;45.308;-75.096;2022-08-19T05:11:16;0.30;;;0.30;;
15106;SDS011;7654;45.308;-75.096;2022-08-19T05:13:54;0.30;;;0.30;;
15106;SDS011;7654;45.308;-75.096;2022-08-19T05:16:25;0.30;;;0.30;;
15106;SDS011;7654;45.308;-75.096;2022-08-19T05:18:56;0.30;;;0.30;;
15106;SDS011;7654;45.308;-75.096;2022-08-19T05:21:43;0.30;;;0.30;;
15106;SDS011;7654;45.308;-75.096;2022-08-19T05:24:31;0.30;;;0.30;;
15106;SDS011;7654;45.308;-75.096;2022-08-19T05:27:16;0.30;;;0.30;;
15106;SDS011;7654;45.308;-75.096;2022-08-19T05:29:48;0.30;;;0.30;;
15106;SDS011;7654;45.308;-75.096;2022-08-19T05:32:18;0.30;;;0.30;;
15106;SDS011;7654;45.308;-75.096;2022-08-19T05:34:48;0.30;;;0.30;;
15106;SDS011;7654;45.308;-75.096;2022-08-19T05:37:19;0.30;;;0.30;;
15106;SDS011;7654;45.308;-75.096;2022-08-19T05:39:49;0.40;;;0.40;;
15106;SDS011;7654;45.308;-75.096;2022-08-19T05:42:19;0.30;;;0.30;;
15106;SDS011;7654;45.308;-75.096;2022-08-19T05:44:52;0.33;;;0.33;;
15106;SDS011;7654;45.308;-75.096;2022-08-19T05:47:23;0.30;;;0.30;;
15106;SDS011;7654;45.308;-75.096;2022-08-19T05:49:53;0.30;;;0.30;;
15106;SDS011;7654;45.308;-75.096;2022-08-19T05:52:23;0.30;;;0.30;;
15106;SDS011;7654;45.308;-75.096;2022-08-19T05:54:56;0.30;;;0.30;;
15106;SDS011;7654;45.308;-75.096;2022-08-19T05:57:27;0.30;;;0.30;;
15106;SDS011;7654;45.308;-75.096;2022-08-19T05:59:59;0.30;;;0.30;;
15106;SDS011;7654;45.308;-75.096;2022-08-19T06:02:35;0.30;;;0.30;;
15106;SDS011;7654;45.308;-75.096;2022-08-19T06:05:05;0.30;;;0.30;;
15106;SDS011;7654;45.308;-75.096;2022-08-19T06:07:37;0.30;;;0.30;;
15106;SDS011;7654;45.308;-75.096;2022-08-19T06:10:09;0.40;;;0.40;;
15106;SDS011;7654;45.308;-75.096;2022-08-19T06:12:40;0.30;;;0.30;;
15106;SDS011;7654;45.308;-75.096;2022-08-19T06:15:12;0.30;;;0.30;;
15106;SDS011;7654;45.308;-75.096;2022-08-19T06:17:43;0.30;;;0.30;;
15106;SDS011;7654;45.308;-75.096;2022-08-19T06:20:14;0.30;;;0.30;;
15106;SDS011;7654;45.308;-75.096;2022-08-19T06:23:05;0.40;;;0.40;;
15106;SDS011;7654;45.308;-75.096;2022-08-19T06:25:41;0.40;;;0.40;;
15106;SDS011;7654;45.308;-75.096;2022-08-19T06:28:11;0.30;;;0.30;;
15106;SDS011;7654;45.308;-75.096;2022-08-19T06:30:44;0.40;;;0.40;;
15106;SDS011;7654;45.308;-75.096;2022-08-19T06:33:14;0.40;;;0.40;;
15106;SDS011;7654;45.308;-75.096;2022-08-19T06:35:44;0.37;;;0.37;;
15106;SDS011;7654;45.308;-75.096;2022-08-19T06:38:14;0.40;;;0.40;;
15106;SDS011;7654;45.308;-75.096;2022-08-19T06:40:45;0.20;;;0.20;;
15106;SDS011;7654;45.308;-75.096;2022-08-19T06:43:15;0.30;;;0.30;;
15106;SDS011;7654;45.308;-75.096;2022-08-19T06:45:47;0.30;;;0.30;;
15106;SDS011;7654;45.308;-75.096;2022-08-19T06:48:19;0.30;;;0.30;;
15106;SDS011;7654;45.308;-75.096;2022-08-19T06:50:51;0.30;;;0.30;;
15106;SDS011;7654;45.308;-75.096;2022-08-19T06:53:21;0.30;;;0.30;;
15106;SDS011;7654;45.308;-75.096;2022-08-19T06:55:55;0.30;;;0.30;;
15106;SDS011;7654;45.308;-75.096;2022-08-19T06:58:28;0.30;;;0.30;;
15106;SDS011;7654;45.308;-75.096;2022-08-19T07:01:02;0.40;;;0.40;;
15106;SDS011;7654;45.308;-75.096;2022-08-19T07:03:35;0.30;;;0.30;;
15106;SDS011;7654;45.308;-75.096;2022-08-19T07:06:07;0.33;;;0.33;;
15106;SDS011;7654;45.308;-75.096;2022-08-19T07:08:59;0.30;;;0.30;;
15106;SDS011;7654;45.308;-75.096;2022-08-19T07:11:29;0.30;;;0.30;;
15106;SDS011;7654;45.308;-75.096;2022-08-19T07:13:59;0.30;;;0.30;;
15106;SDS011;7654;45.308;-75.096;2022-08-19T07:16:32;0.30;;;0.30;;
15106;SDS011;7654;45.308;-75.096;2022-08-19T07:19:05;0.30;;;0.30;;
15106;SDS011;7654;45.308;-75.096;2022-08-19T07:21:42;0.40;;;0.40;;
15106;SDS011;7654;45.308;-75.096;2022-08-19T07:24:12;0.40;;;0.40;;
15106;SDS011;7654;45.308;-75.096;2022-08-19T07:26:42;0.30;;;0.30;;
15106;SDS011;7654;45.308;-75.096;2022-08-19T07:29:18;0.30;;;0.30;;
15106;SDS011;7654;45.308;-75.096;2022-08-19T07:31:55;0.30;;;0.30;;
15106;SDS011;7654;45.308;-75.096;2022-08-19T07:34:27;0.20;;;0.20;;
15106;SDS011;7654;45.308;-75.096;2022-08-19T07:36:58;0.40;;;0.40;;
15106;SDS011;7654;45.308;-75.096;2022-08-19T07:39:29;0.30;;;0.30;;
15106;SDS011;7654;45.308;-75.096;2022-08-19T07:42:02;0.30;;;0.30;;
15106;SDS011;7654;45.308;-75.096;2022-08-19T07:44:35;0.30;;;0.30;;
15106;SDS011;7654;45.308;-75.096;2022-08-19T07:47:07;0.40;;;0.40;;
15106;SDS011;7654;45.308;-75.096;2022-08-19T07:49:57;0.30;;;0.30;;
15106;SDS011;7654;45.308;-75.096;2022-08-19T07:52:27;0.30;;;0.30;;
15106;SDS011;7654;45.308;-75.096;2022-08-19T07:54:58;0.30;;;0.30;;
15106;SDS011;7654;45.308;-75.096;2022-08-19T07:57:31;0.30;;;0.30;;
15106;SDS011;7654;45.308;-75.096;2022-08-19T08:00:01;0.30;;;0.30;;
15106;SDS011;7654;45.308;-75.096;2022-08-19T08:02:34;0.30;;;0.30;;
15106;SDS011;7654;45.308;-75.096;2022-08-19T08:05:05;0.40;;;0.40;;
15106;SDS011;7654;45.308;-75.096;2022-08-19T08:07:52;0.30;;;0.30;;
15106;SDS011;7654;45.308;-75.096;2022-08-19T08:10:39;0.40;;;0.40;;
15106;SDS011;7654;45.308;-75.096;2022-08-19T08:13:18;0.30;;;0.30;;
15106;SDS011;7654;45.308;-75.096;2022-08-19T08:15:48;0.40;;;0.40;;
15106;SDS011;7654;45.308;-75.096;2022-08-19T08:18:23;0.30;;;0.30;;
15106;SDS011;7654;45.308;-75.096;2022-08-19T08:20:56;0.30;;;0.30;;
15106;SDS011;7654;45.308;-75.096;2022-08-19T08:23:28;0.40;;;0.40;;
15106;SDS011;7654;45.308;-75.096;2022-08-19T08:25:58;0.30;;;0.30;;
15106;SDS011;7654;45.308;-75.096;2022-08-19T08:28:29;0.40;;;0.40;;
15106;SDS011;7654;45.308;-75.096;2022-08-19T08:30:59;0.40;;;0.40;;
15106;SDS011;7654;45.308;-75.096;2022-08-19T08:33:37;0.40;;;0.40;;
15106;SDS011;7654;45.308;-75.096;2022-08-19T08:36:09;0.30;;;0.30;;
15106;SDS011;7654;45.308;-75.096;2022-08-19T08:38:40;0.40;;;0.40;;
15106;SDS011;7654;45.308;-75.096;2022-08-19T08:41:14;0.30;;;0.30;;
15106;SDS011;7654;45.308;-75.096;2022-08-19T08:43:51;0.33;;;0.33;;
15106;SDS011;7654;45.308;-75.096;2022-08-19T08:46:24;0.30;;;0.30;;
15106;SDS011;7654;45.308;-75.096;2022-08-19T08:49:02;0.40;;;0.40;;
15106;SDS011;7654;45.308;-75.096;2022-08-19T08:51:42;0.40;;;0.40;;
15106;SDS011;7654;45.308;-75.096;2022-08-19T08:54:27;0.37;;;0.37;;
15106;SDS011;7654;45.308;-75.096;2022-08-19T08:57:02;0.30;;;0.30;;
15106;SDS011;7654;45.308;-75.096;2022-08-19T08:59:36;0.40;;;0.40;;
15106;SDS011;7654;45.308;-75.096;2022-08-19T09:02:08;0.40;;;0.40;;
15106;SDS011;7654;45.308;-75.096;2022-08-19T09:04:40;0.30;;;0.30;;
15106;SDS011;7654;45.308;-75.096;2022-08-19T09:07:20;0.30;;;0.30;;
15106;SDS011;7654;45.308;-75.096;2022-08-19T09:10:03;0.40;;;0.40;;
15106;SDS011;7654;45.308;-75.096;2022-08-19T09:12:41;0.30;;;0.30;;
15106;SDS011;7654;45.308;-75.096;2022-08-19T09:15:17;0.40;;;0.40;;
15106;SDS011;7654;45.308;-75.096;2022-08-19T09:17:59;0.33;;;0.33;;
15106;SDS011;7654;45.308;-75.096;2022-08-19T09:20:34;0.40;;;0.40;;
15106;SDS011;7654;45.308;-75.096;2022-08-19T09:23:08;0.30;;;0.30;;
15106;SDS011;7654;45.308;-75.096;2022-08-19T09:25:39;0.40;;;0.40;;
15106;SDS011;7654;45.308;-75.096;2022-08-19T09:28:09;0.40;;;0.40;;
15106;SDS011;7654;45.308;-75.096;2022-08-19T09:30:48;0.30;;;0.30;;
15106;SDS011;7654;45.308;-75.096;2022-08-19T09:33:20;0.37;;;0.37;;
15106;SDS011;7654;45.308;-75.096;2022-08-19T09:36:00;0.33;;;0.33;;
15106;SDS011;7654;45.308;-75.096;2022-08-19T09:38:34;0.30;;;0.30;;
15106;SDS011;7654;45.308;-75.096;2022-08-19T09:41:11;0.30;;;0.30;;
15106;SDS011;7654;45.308;-75.096;2022-08-19T09:43:44;0.40;;;0.40;;
15106;SDS011;7654;45.308;-75.096;2022-08-19T09:46:19;0.40;;;0.40;;
15106;SDS011;7654;45.308;-75.096;2022-08-19T09:48:49;0.37;;;0.37;;
15106;SDS011;7654;45.308;-75.096;2022-08-19T09:51:22;0.30;;;0.30;;
15106;SDS011;7654;45.308;-75.096;2022-08-19T09:53:58;0.30;;;0.30;;
15106;SDS011;7654;45.308;-75.096;2022-08-19T09:56:31;0.40;;;0.40;;
15106;SDS011;7654;45.308;-75.096;2022-08-19T09:59:01;0.40;;;0.40;;
15106;SDS011;7654;45.308;-75.096;2022-08-19T10:01:32;0.40;;;0.40;;
15106;SDS011;7654;45.308;-75.096;2022-08-19T10:04:03;0.30;;;0.30;;
15106;SDS011;7654;45.308;-75.096;2022-08-19T10:06:48;0.30;;;0.30;;
15106;SDS011;7654;45.308;-75.096;2022-08-19T10:09:19;0.40;;;0.40;;
15106;SDS011;7654;45.308;-75.096;2022-08-19T10:11:59;0.40;;;0.40;;
15106;SDS011;7654;45.308;-75.096;2022-08-19T10:14:31;0.30;;;0.30;;
15106;SDS011;7654;45.308;-75.096;2022-08-19T10:17:02;0.40;;;0.40;;
15106;SDS011;7654;45.308;-75.096;2022-08-19T10:19:47;0.30;;;0.30;;
15106;SDS011;7654;45.308;-75.096;2022-08-19T10:22:23;0.30;;;0.30;;
15106;SDS011;7654;45.308;-75.096;2022-08-19T10:24:53;0.30;;;0.30;;
15106;SDS011;7654;45.308;-75.096;2022-08-19T10:27:23;0.40;;;0.40;;
15106;SDS011;7654;45.308;-75.096;2022-08-19T10:29:57;0.30;;;0.30;;
15106;SDS011;7654;45.308;-75.096;2022-08-19T10:32:28;0.37;;;0.37;;
15106;SDS011;7654;45.308;-75.096;2022-08-19T10:35:00;0.30;;;0.30;;
15106;SDS011;7654;45.308;-75.096;2022-08-19T10:37:35;0.30;;;0.30;;
15106;SDS011;7654;45.308;-75.096;2022-08-19T10:40:23;0.40;;;0.40;;
15106;SDS011;7654;45.308;-75.096;2022-08-19T10:42:54;0.40;;;0.40;;
15106;SDS011;7654;45.308;-75.096;2022-08-19T10:45:24;0.40;;;0.40;;
15106;SDS011;7654;45.308;-75.096;2022-08-19T10:47:55;0.30;;;0.30;;
15106;SDS011;7654;45.308;-75.096;2022-08-19T10:50:25;0.40;;;0.40;;
15106;SDS011;7654;45.308;-75.096;2022-08-19T10:53:14;0.37;;;0.37;;
15106;SDS011;7654;45.308;-75.096;2022-08-19T10:55:45;0.30;;;0.30;;
15106;SDS011;7654;45.308;-75.096;2022-08-19T10:58:33;0.40;;;0.40;;
15106;SDS011;7654;45.308;-75.096;2022-08-19T11:21:10;0.30;;;0.30;;
15106;SDS011;7654;45.308;-75.096;2022-08-19T11:33:55;0.30;;;0.30;;
15106;SDS011;7654;45.308;-75.096;2022-08-19T11:36:27;0.30;;;0.30;;
15106;SDS011;7654;45.308;-75.096;2022-08-19T11:39:00;0.30;;;0.30;;
15106;SDS011;7654;45.308;-75.096;2022-08-19T11:41:31;0.30;;;0.30;;
15106;SDS011;7654;45.308;-75.096;2022-08-19T11:44:02;0.30;;;0.30;;
15106;SDS011;7654;45.308;-75.096;2022-08-19T11:46:35;0.30;;;0.30;;
15106;SDS011;7654;45.308;-75.096;2022-08-19T11:49:06;0.30;;;0.30;;
15106;SDS011;7654;45.308;-75.096;2022-08-19T11:51:40;0.30;;;0.30;;
15106;SDS011;7654;45.308;-75.096;2022-08-19T11:56:43;0.30;;;0.30;;
15106;SDS011;7654;45.308;-75.096;2022-08-19T11:59:16;0.30;;;0.30;;
15106;SDS011;7654;45.308;-75.096;2022-08-19T12:01:46;0.30;;;0.30;;
15106;SDS011;7654;45.308;-75.096;2022-08-19T12:04:16;0.30;;;0.30;;
15106;SDS011;7654;45.308;-75.096;2022-08-19T12:14:23;0.30;;;0.30;;
15106;SDS011;7654;45.308;-75.096;2022-08-19T12:16:55;0.30;;;0.30;;
15106;SDS011;7654;45.308;-75.096;2022-08-19T12:19:25;0.30;;;0.30;;
15106;SDS011;7654;45.308;-75.096;2022-08-19T12:21:58;0.30;;;0.30;;
15106;SDS011;7654;45.308;-75.096;2022-08-19T23:42:43;0.10;;;0.10;;
15106;SDS011;7654;45.308;-75.096;2022-08-19T23:45:14;0.10;;;0.10;;
15106;SDS011;7654;45.308;-75.096;2022-08-19T23:47:51;0.13;;;0.13;;
15106;SDS011;7654;45.308;-75.096;2022-08-19T23:50:23;0.10;;;0.10;;
15106;SDS011;7654;45.308;-75.096;2022-08-19T23:52:56;0.10;;;0.10;;
15106;SDS011;7654;45.308;-75.096;2022-08-19T23:55:28;0.10;;;0.10;;
15106;SDS011;7654;45.308;-75.096;2022-08-19T23:58:01;0.10;;;0.10;;
